createdAt,value
2018-03-24T00:01:44.916Z,93436.09
2018-03-24T00:04:11.675Z,93435.50
2018-03-24T00:06:38.372Z,93431.71
2018-03-24T00:09:05.056Z,93428.40
2018-03-24T00:11:37.940Z,93423.93
2018-03-24T00:14:04.580Z,93427.75
2018-03-24T00:16:31.286Z,93429.58
2018-03-24T00:18:58.023Z,93430.59
2018-03-24T00:21:24.723Z,93426.06
2018-03-24T00:23:51.351Z,93426.37
2018-03-24T00:26:18.028Z,93428.40
2018-03-24T00:28:44.681Z,93420.62
2018-03-24T00:31:11.326Z,93421.64
2018-03-24T00:33:37.962Z,93418.38
2018-03-24T00:36:05.988Z,93420.81
2018-03-24T00:38:31.341Z,93419.70
2018-03-24T00:40:57.943Z,93424.06
2018-03-24T00:43:24.581Z,93423.27
2018-03-24T00:45:51.345Z,93425.23
2018-03-24T00:48:25.045Z,93426.71
2018-03-24T00:50:49.283Z,93426.80
2018-03-24T00:53:15.982Z,93430.60
2018-03-24T00:55:42.690Z,93429.47
2018-03-24T00:58:09.332Z,93428.45
2018-03-24T01:00:36.114Z,93432.98
2018-03-24T01:03:02.744Z,93430.86
2018-03-24T01:05:29.380Z,93431.70
2018-03-24T01:07:56.088Z,93438.17
2018-03-24T01:10:22.767Z,93434.81
2018-03-24T01:12:51.318Z,93430.58
2018-03-24T01:15:16.034Z,93426.20
2018-03-24T01:17:42.721Z,93428.45
2018-03-24T01:20:09.352Z,93429.08
2018-03-24T01:22:35.996Z,93429.31
2018-03-24T01:25:02.801Z,93430.84
2018-03-24T01:27:29.441Z,93433.53
2018-03-24T01:29:56.044Z,93436.13
2018-03-24T01:32:22.716Z,93441.38
2018-03-24T01:34:49.352Z,93433.90
2018-03-24T01:37:15.995Z,93436.30
2018-03-24T01:39:44.178Z,93441.11
2018-03-24T01:42:09.305Z,93445.00
2018-03-24T01:44:35.945Z,93447.51
2018-03-24T01:47:02.636Z,93442.97
2018-03-24T01:49:29.273Z,93443.98
2018-03-24T01:51:56.001Z,93441.58
2018-03-24T01:54:22.712Z,93444.73
2018-03-24T01:56:49.310Z,93450.28
2018-03-24T01:59:15.979Z,93448.08
2018-03-24T02:01:42.621Z,93455.52
2018-03-24T02:04:11.399Z,93454.19
2018-03-24T02:06:35.941Z,93456.75
2018-03-24T02:09:02.573Z,93462.98
2018-03-24T02:11:29.177Z,93457.74
2018-03-24T02:13:55.991Z,93456.77
2018-03-24T02:16:22.548Z,93449.30
2018-03-24T02:18:49.219Z,93452.23
2018-03-24T02:21:15.892Z,93450.09
2018-03-24T02:23:42.577Z,93457.89
2018-03-24T02:26:09.294Z,93452.77
2018-03-24T02:28:35.962Z,93450.36
2018-03-24T02:31:02.578Z,93451.30
2018-03-24T02:33:29.302Z,93453.49
2018-03-24T02:35:55.940Z,93448.52
2018-03-24T02:38:22.568Z,93451.55
2018-03-24T02:40:49.171Z,93449.15
2018-03-24T02:43:15.846Z,93446.44
2018-03-24T02:45:42.535Z,93445.44
2018-03-24T02:48:09.202Z,93440.72
2018-03-24T02:50:35.832Z,93442.27
2018-03-24T02:53:02.470Z,93438.85
2018-03-24T02:55:29.121Z,93441.84
2018-03-24T02:57:57.252Z,93442.20
2018-03-24T03:00:22.378Z,93445.05
2018-03-24T03:02:49.095Z,93451.81
2018-03-24T03:05:15.692Z,93442.19
2018-03-24T03:07:42.392Z,93446.42
2018-03-24T03:10:09.006Z,93448.46
2018-03-24T03:12:35.674Z,93441.36
2018-03-24T03:15:02.336Z,93445.31
2018-03-24T03:17:29.005Z,93444.23
2018-03-24T03:19:55.695Z,93445.78
2018-03-24T03:22:23.617Z,93451.98
2018-03-24T03:24:49.027Z,93453.09
2018-03-24T03:27:15.634Z,93458.47
2018-03-24T03:29:42.401Z,93458.92
2018-03-24T03:32:09.041Z,93453.37
2018-03-24T03:34:35.683Z,93458.65
2018-03-24T03:37:02.292Z,93465.84
2018-03-24T03:39:29.013Z,93479.01
2018-03-24T03:41:55.632Z,93470.13
2018-03-24T03:44:22.278Z,93473.27
2018-03-24T03:46:48.920Z,93472.16
2018-03-24T03:49:15.599Z,93476.71
2018-03-24T03:51:42.392Z,93478.69
2018-03-24T03:54:09.025Z,93480.47
2018-03-24T03:56:35.669Z,93482.30
2018-03-24T03:59:02.384Z,93481.09
2018-03-24T04:01:29.005Z,93478.39
2018-03-24T04:03:55.764Z,93485.44
2018-03-24T04:06:25.522Z,93484.23
2018-03-24T04:08:52.155Z,93490.70
2018-03-24T04:11:18.765Z,93497.02
2018-03-24T04:13:45.391Z,93494.22
2018-03-24T04:16:12.066Z,93491.89
2018-03-24T04:18:40.132Z,93494.59
2018-03-24T04:21:05.378Z,93497.81
2018-03-24T04:23:31.987Z,93501.43
2018-03-24T04:25:58.634Z,93504.95
2018-03-24T04:28:25.374Z,93494.03
2018-03-24T04:30:51.973Z,93506.24
2018-03-24T04:33:18.712Z,93514.57
2018-03-24T04:35:45.334Z,93519.75
2018-03-24T04:38:12.075Z,93524.55
2018-03-24T04:40:38.710Z,93523.91
2018-03-24T04:43:05.695Z,93528.28
2018-03-24T04:45:32.415Z,93526.69
2018-03-24T04:47:59.047Z,93531.40
2018-03-24T04:50:27.728Z,93527.23
2018-03-24T04:52:52.343Z,93527.55
2018-03-24T04:55:21.929Z,93534.92
2018-03-24T04:57:48.606Z,93540.78
2018-03-24T05:00:15.326Z,93536.78
2018-03-24T05:02:41.958Z,93530.69
2018-03-24T05:05:12.047Z,93540.41
2018-03-24T05:07:41.601Z,93542.50
2018-03-24T05:10:08.295Z,93547.61
2018-03-24T05:12:34.972Z,93554.55
2018-03-24T05:15:01.638Z,93559.91
2018-03-24T05:17:28.380Z,93557.97
2018-03-24T05:19:55.053Z,93564.34
2018-03-24T05:22:21.828Z,93567.31
2018-03-24T05:24:48.497Z,93572.03
2018-03-24T05:27:18.555Z,93571.11
2018-03-24T05:29:48.068Z,93570.19
2018-03-24T05:32:15.940Z,93569.35
2018-03-24T05:34:41.375Z,93576.14
2018-03-24T05:37:07.980Z,93578.66
2018-03-24T05:39:34.616Z,93579.47
2018-03-24T05:42:01.335Z,93579.30
2018-03-24T05:44:31.388Z,93584.47
2018-03-24T05:46:58.075Z,93588.06
2018-03-24T05:49:24.700Z,93591.48
2018-03-24T05:51:51.425Z,93590.47
2018-03-24T05:54:18.063Z,93597.03
2018-03-24T05:56:44.656Z,93605.94
2018-03-24T05:59:11.304Z,93603.90
2018-03-24T06:01:37.940Z,93605.19
2018-03-24T06:04:04.730Z,93614.34
2018-03-24T06:06:31.381Z,93615.55
2018-03-24T06:08:58.107Z,93617.31
2018-03-24T06:11:26.114Z,93628.89
2018-03-24T06:13:51.442Z,93632.95
2018-03-24T06:16:18.126Z,93628.42
2018-03-24T06:18:46.036Z,93630.55
2018-03-24T06:21:11.434Z,93633.50
2018-03-24T06:23:38.108Z,93639.16
2018-03-24T06:26:05.491Z,93645.08
2018-03-24T06:28:32.244Z,93647.01
2018-03-24T06:31:01.885Z,93644.87
2018-03-24T06:33:28.560Z,93646.91
2018-03-24T06:35:55.194Z,93644.33
2018-03-24T06:38:21.864Z,93648.02
2018-03-24T06:40:48.517Z,93644.49
2018-03-24T06:43:20.530Z,93647.84
2018-03-24T06:45:45.100Z,93652.55
2018-03-24T06:48:11.740Z,93653.94
2018-03-24T06:50:38.425Z,93661.52
2018-03-24T06:53:05.071Z,93663.28
2018-03-24T06:55:31.736Z,93663.83
2018-03-24T06:57:58.421Z,93667.45
2018-03-24T07:00:25.014Z,93666.60
2018-03-24T07:02:51.735Z,93667.08
2018-03-24T07:05:18.501Z,93672.35
2018-03-24T07:07:45.134Z,93670.31
2018-03-24T07:10:13.171Z,93676.89
2018-03-24T07:12:38.402Z,93690.95
2018-03-24T07:15:05.036Z,93692.98
2018-03-24T07:17:31.681Z,93694.27
2018-03-24T07:19:59.661Z,93705.59
2018-03-24T07:22:24.998Z,93706.50
2018-03-24T07:24:51.679Z,93702.43
2018-03-24T07:27:18.279Z,93707.15
2018-03-24T07:29:45.055Z,93708.10
2018-03-24T07:32:11.765Z,93710.98
2018-03-24T07:34:38.404Z,93719.29
2018-03-24T07:37:07.092Z,93715.59
2018-03-24T07:39:33.824Z,93724.39
2018-03-24T07:42:00.427Z,93724.94
2018-03-24T07:44:29.432Z,93726.80
2018-03-24T07:46:53.906Z,93725.78
2018-03-24T07:49:20.499Z,93732.42
2018-03-24T07:51:47.257Z,93730.39
2018-03-24T07:54:13.935Z,93731.98
2018-03-24T07:56:40.529Z,93730.02
2018-03-24T07:59:07.213Z,93735.57
2018-03-24T08:01:33.811Z,93733.36
2018-03-24T08:04:00.479Z,93732.41
2018-03-24T08:06:28.485Z,93729.22
2018-03-24T08:08:54.877Z,93733.66
2018-03-24T08:11:22.792Z,93724.94
2018-03-24T08:13:48.154Z,93733.27
2018-03-24T08:16:14.806Z,93728.52
2018-03-24T08:18:41.435Z,93733.44
2018-03-24T08:21:08.176Z,93738.89
2018-03-24T08:23:34.818Z,93744.55
2018-03-24T08:26:01.419Z,93750.22
2018-03-24T08:28:28.108Z,93753.53
2018-03-24T08:30:54.736Z,93759.47
2018-03-24T08:33:21.383Z,93760.69
2018-03-24T08:35:47.995Z,93769.47
2018-03-24T08:38:14.621Z,93769.30
2018-03-24T08:40:41.291Z,93776.52
2018-03-24T08:43:07.894Z,93767.27
2018-03-24T08:45:34.572Z,93771.59
2018-03-24T08:48:01.209Z,93780.14
2018-03-24T08:50:27.950Z,93780.58
2018-03-24T08:52:54.555Z,93787.06
2018-03-24T08:55:21.237Z,93789.30
2018-03-24T08:57:47.840Z,93789.13
2018-03-24T09:00:14.484Z,93791.42
2018-03-24T09:02:41.125Z,93791.52
2018-03-24T09:05:07.802Z,93798.38
2018-03-24T09:07:34.400Z,93800.14
2018-03-24T09:10:01.078Z,93793.62
2018-03-24T09:12:27.703Z,93792.70
2018-03-24T09:14:54.342Z,93799.65
2018-03-24T09:17:21.010Z,93804.66
2018-03-24T09:19:47.655Z,93800.39
2018-03-24T09:22:14.318Z,93805.75
2018-03-24T09:24:40.999Z,93806.70
2018-03-24T09:27:07.699Z,93810.55
2018-03-24T09:29:34.369Z,93806.12
2018-03-24T09:32:01.010Z,93817.43
2018-03-24T09:34:27.653Z,93810.64
2018-03-24T09:36:54.333Z,93810.92
2018-03-24T09:39:21.063Z,93812.50
2018-03-24T09:41:47.724Z,93810.91
2018-03-24T09:44:14.340Z,93822.03
2018-03-24T09:46:42.375Z,93813.47
2018-03-24T09:49:07.690Z,93822.19
2018-03-24T09:51:35.691Z,93816.71
2018-03-24T09:54:01.026Z,93815.23
2018-03-24T09:56:27.751Z,93821.45
2018-03-24T09:58:54.430Z,93822.92
2018-03-24T10:01:23.627Z,93817.71
2018-03-24T10:03:50.266Z,93820.55
2018-03-24T10:06:16.923Z,93811.63
2018-03-24T10:08:43.608Z,93819.52
2018-03-24T10:11:10.257Z,93825.30
2018-03-24T10:13:36.918Z,93827.48
2018-03-24T10:16:05.034Z,93825.48
2018-03-24T10:18:30.385Z,93826.22
2018-03-24T10:20:57.161Z,93833.92
2018-03-24T10:23:23.803Z,93837.44
2018-03-24T10:25:50.442Z,93833.14
2018-03-24T10:28:17.081Z,93835.34
2018-03-24T10:30:46.801Z,93834.95
2018-03-24T10:33:13.452Z,93840.38
2018-03-24T10:35:40.168Z,93838.69
2018-03-24T10:38:06.815Z,93834.87
2018-03-24T10:40:33.452Z,93834.28
2018-03-24T10:43:00.116Z,93839.25
2018-03-24T10:45:26.797Z,93837.48
2018-03-24T10:47:55.237Z,93834.03
2018-03-24T10:50:20.084Z,93828.56
2018-03-24T10:52:46.724Z,93825.59
2018-03-24T10:55:13.500Z,93825.22
2018-03-24T10:57:40.209Z,93833.95
2018-03-24T11:00:08.910Z,93833.91
2018-03-24T11:02:35.577Z,93834.66
2018-03-24T11:05:02.200Z,93836.14
2018-03-24T11:07:30.443Z,93830.31
2018-03-24T11:09:55.589Z,93833.09
2018-03-24T11:12:23.564Z,93834.94
2018-03-24T11:14:48.795Z,93834.28
2018-03-24T11:17:15.518Z,93832.93
2018-03-24T11:19:42.126Z,93828.09
2018-03-24T11:22:10.146Z,93832.72
2018-03-24T11:24:35.446Z,93830.48
2018-03-24T11:27:02.104Z,93837.06
2018-03-24T11:29:28.856Z,93840.78
2018-03-24T11:31:55.456Z,93839.34
2018-03-24T11:34:22.109Z,93842.41
2018-03-24T11:36:48.792Z,93846.03
2018-03-24T11:39:15.523Z,93844.24
2018-03-24T11:41:43.480Z,93842.50
2018-03-24T11:44:08.856Z,93851.49
2018-03-24T11:46:36.971Z,93852.27
2018-03-24T11:49:02.249Z,93849.36
2018-03-24T11:51:29.003Z,93853.56
2018-03-24T11:54:00.990Z,93854.62
2018-03-24T11:56:25.377Z,93860.98
2018-03-24T11:58:52.044Z,93861.78
2018-03-24T12:01:18.681Z,93869.41
2018-03-24T12:03:45.322Z,93864.22
2018-03-24T12:06:11.961Z,93861.27
2018-03-24T12:08:40.594Z,93867.88
2018-03-24T12:11:06.309Z,93868.09
2018-03-24T12:13:31.887Z,93870.91
2018-03-24T12:15:58.523Z,93871.66
2018-03-24T12:18:30.412Z,93865.82
2018-03-24T12:20:57.099Z,93864.05
2018-03-24T12:23:23.766Z,93868.62
2018-03-24T12:25:52.366Z,93870.09
2018-03-24T12:28:21.453Z,93869.35
2018-03-24T12:30:48.125Z,93872.33
2018-03-24T12:33:14.794Z,93878.66
2018-03-24T12:35:41.485Z,93878.47
2018-03-24T12:38:08.150Z,93882.31
2018-03-24T12:40:34.739Z,93874.61
2018-03-24T12:43:01.380Z,93886.20
2018-03-24T12:45:28.042Z,93884.62
2018-03-24T12:47:54.753Z,93885.92
2018-03-24T12:50:23.536Z,93884.73
2018-03-24T12:52:50.215Z,93883.36
2018-03-24T12:55:16.897Z,93877.22
2018-03-24T12:57:43.574Z,93883.80
2018-03-24T13:00:10.175Z,93882.45
2018-03-24T13:02:36.867Z,93883.73
2018-03-24T13:05:03.541Z,93888.73
2018-03-24T13:07:30.181Z,93887.18
2018-03-24T13:09:56.907Z,93894.42
2018-03-24T13:12:23.503Z,93899.54
2018-03-24T13:14:51.293Z,93910.69
2018-03-24T13:17:17.960Z,93909.19
2018-03-24T13:19:44.734Z,93907.80
2018-03-24T13:22:11.398Z,93915.88
2018-03-24T13:24:38.129Z,93912.45
2018-03-24T13:27:04.726Z,93912.63
2018-03-24T13:29:31.460Z,93920.33
2018-03-24T13:31:58.102Z,93917.34
2018-03-24T13:34:24.838Z,93924.69
2018-03-24T13:36:51.476Z,93929.16
2018-03-24T13:39:18.159Z,93927.02
2018-03-24T13:41:44.885Z,93925.26
2018-03-24T13:44:14.421Z,93931.00
2018-03-24T13:46:42.344Z,93933.14
2018-03-24T13:49:07.811Z,93935.11
2018-03-24T13:51:34.480Z,93940.09
2018-03-24T13:54:01.126Z,93941.87
2018-03-24T13:56:27.758Z,93947.78
2018-03-24T13:58:54.427Z,93949.17
2018-03-24T14:01:21.106Z,93953.27
2018-03-24T14:03:47.790Z,93954.84
2018-03-24T14:06:14.454Z,93955.95
2018-03-24T14:08:41.210Z,93952.70
2018-03-24T14:11:07.898Z,93957.14
2018-03-24T14:13:35.907Z,93957.45
2018-03-24T14:16:01.370Z,93961.70
2018-03-24T14:18:29.191Z,93962.44
2018-03-24T14:20:54.729Z,93965.80
2018-03-24T14:23:21.423Z,93970.42
2018-03-24T14:25:48.052Z,93975.70
2018-03-24T14:28:14.776Z,93973.77
2018-03-24T14:30:41.447Z,93978.42
2018-03-24T14:33:08.130Z,93984.25
2018-03-24T14:35:34.726Z,93978.97
2018-03-24T14:38:01.434Z,93979.81
2018-03-24T14:40:28.080Z,93985.27
2018-03-24T14:42:54.755Z,93985.74
2018-03-24T14:45:21.437Z,93990.09
2018-03-24T14:47:48.101Z,93993.52
2018-03-24T14:50:14.785Z,93994.09
2018-03-24T14:52:41.386Z,93999.17
2018-03-24T14:55:08.067Z,94000.47
2018-03-24T14:57:37.629Z,93999.72
2018-03-24T15:00:04.867Z,94009.75
2018-03-24T15:02:33.073Z,94012.23
2018-03-24T15:04:58.261Z,94010.40
2018-03-24T15:07:24.900Z,94011.22
2018-03-24T15:09:51.621Z,94018.27
2018-03-24T15:12:18.223Z,94018.48
2018-03-24T15:14:45.019Z,94025.70
2018-03-24T15:17:11.716Z,94028.02
2018-03-24T15:19:38.430Z,94030.52
2018-03-24T15:22:05.102Z,94036.62
2018-03-24T15:24:31.790Z,94039.41
2018-03-24T15:26:58.418Z,94040.36
2018-03-24T15:29:25.113Z,94039.41
2018-03-24T15:31:51.756Z,94050.16
2018-03-24T15:34:21.620Z,94052.39
2018-03-24T15:36:49.385Z,94053.78
2018-03-24T15:39:16.313Z,94058.44
2018-03-24T15:41:41.568Z,94066.58
2018-03-24T15:44:08.753Z,94074.27
2018-03-24T15:46:35.355Z,94079.08
2018-03-24T15:49:02.068Z,94077.80
2018-03-24T15:51:28.756Z,94086.98
2018-03-24T15:53:55.487Z,94088.81
2018-03-24T15:56:22.255Z,94088.55
2018-03-24T15:58:48.917Z,94087.80
2018-03-24T16:01:17.833Z,94097.46
2018-03-24T16:03:44.513Z,94105.33
2018-03-24T16:06:11.195Z,94106.52
2018-03-24T16:08:37.879Z,94113.10
2018-03-24T16:11:04.541Z,94121.36
2018-03-24T16:13:31.136Z,94127.38
2018-03-24T16:15:57.819Z,94133.39
2018-03-24T16:18:24.530Z,94131.26
2018-03-24T16:20:51.233Z,94132.84
2018-03-24T16:23:17.902Z,94139.06
2018-03-24T16:25:44.600Z,94139.53
2018-03-24T16:28:11.231Z,94149.26
2018-03-24T16:30:37.888Z,94148.88
2018-03-24T16:33:04.520Z,94155.55
2018-03-24T16:35:31.180Z,94153.69
2018-03-24T16:37:57.971Z,94157.66
2018-03-24T16:40:24.661Z,94161.12
2018-03-24T16:42:51.295Z,94155.08
2018-03-24T16:45:18.035Z,94151.81
2018-03-24T16:47:44.709Z,94151.92
2018-03-24T16:50:11.441Z,94160.80
2018-03-24T16:52:38.073Z,94160.08
2018-03-24T16:55:04.759Z,94161.53
2018-03-24T16:57:31.436Z,94167.67
2018-03-24T16:59:58.108Z,94171.19
2018-03-24T17:02:24.752Z,94180.09
2018-03-24T17:04:51.533Z,94182.12
2018-03-24T17:07:22.514Z,94184.72
2018-03-24T17:09:47.848Z,94184.72
2018-03-24T17:12:14.513Z,94183.86
2018-03-24T17:14:41.248Z,94191.94
2018-03-24T17:17:07.849Z,94197.50
2018-03-24T17:19:34.558Z,94194.23
2018-03-24T17:22:04.640Z,94199.05
2018-03-24T17:24:31.374Z,94202.95
2018-03-24T17:26:58.099Z,94201.37
2018-03-24T17:29:24.701Z,94203.70
2018-03-24T17:31:54.455Z,94201.19
2018-03-24T17:34:21.053Z,94198.33
2018-03-24T17:36:47.730Z,94207.95
2018-03-24T17:39:15.433Z,94202.13
2018-03-24T17:41:41.081Z,94199.24
2018-03-24T17:44:07.715Z,94204.16
2018-03-24T17:46:34.359Z,94208.87
2018-03-24T17:49:01.020Z,94208.87
2018-03-24T17:51:27.759Z,94213.68
2018-03-24T17:53:54.437Z,94218.59
2018-03-24T17:56:21.094Z,94221.27
2018-03-24T17:58:47.766Z,94225.36
2018-03-24T18:01:14.458Z,94224.34
2018-03-24T18:03:41.045Z,94223.98
2018-03-24T18:06:07.811Z,94233.06
2018-03-24T18:08:34.407Z,94235.83
2018-03-24T18:11:01.133Z,94235.77
2018-03-24T18:13:27.920Z,94237.59
2018-03-24T18:15:54.508Z,94243.26
2018-03-24T18:18:21.185Z,94245.06
2018-03-24T18:20:47.840Z,94249.36
2018-03-24T18:23:14.554Z,94248.83
2018-03-24T18:25:41.242Z,94255.96
2018-03-24T18:28:07.884Z,94253.43
2018-03-24T18:30:34.627Z,94259.92
2018-03-24T18:33:01.243Z,94264.66
2018-03-24T18:35:27.953Z,94265.06
2018-03-24T18:37:54.556Z,94266.02
2018-03-24T18:40:21.200Z,94265.65
2018-03-24T18:42:47.878Z,94269.74
2018-03-24T18:45:14.503Z,94265.12
2018-03-24T18:47:42.369Z,94269.77
2018-03-24T18:50:09.014Z,94272.81
2018-03-24T18:52:38.955Z,94276.61
2018-03-24T18:55:05.669Z,94279.20
2018-03-24T18:57:32.307Z,94275.70
2018-03-24T18:59:59.025Z,94281.83
2018-03-24T19:02:25.625Z,94285.17
2018-03-24T19:04:52.252Z,94288.43
2018-03-24T19:07:18.993Z,94283.05
2018-03-24T19:09:45.594Z,94296.09
2018-03-24T19:12:12.373Z,94290.83
2018-03-24T19:14:39.040Z,94300.67
2018-03-24T19:17:05.679Z,94305.22
2018-03-24T19:19:35.065Z,94306.49
2018-03-24T19:22:01.844Z,94306.49
2018-03-24T19:24:28.513Z,94313.28
2018-03-24T19:26:55.109Z,94320.05
2018-03-24T19:29:21.996Z,94313.66
2018-03-24T19:31:48.637Z,94317.08
2018-03-24T19:34:15.324Z,94327.75
2018-03-24T19:36:42.055Z,94319.14
2018-03-24T19:39:08.725Z,94328.50
2018-03-24T19:41:35.372Z,94324.67
2018-03-24T19:44:02.480Z,94326.17
2018-03-24T19:46:29.126Z,94335.23
2018-03-24T19:48:55.835Z,94338.57
2018-03-24T19:51:22.468Z,94345.82
2018-03-24T19:53:49.146Z,94342.29
2018-03-24T19:56:15.792Z,94350.84
2018-03-24T19:58:42.472Z,94347.59
2018-03-24T20:01:09.201Z,94348.98
2018-03-24T20:03:35.846Z,94354.00
2018-03-24T20:06:02.527Z,94349.45
2018-03-24T20:08:29.194Z,94350.84
2018-03-24T20:10:55.789Z,94348.78
2018-03-24T20:13:22.513Z,94353.03
2018-03-24T20:15:49.204Z,94354.42
2018-03-24T20:18:15.885Z,94357.23
2018-03-24T20:20:45.081Z,94351.67
2018-03-24T20:23:09.640Z,94348.78
2018-03-24T20:25:36.317Z,94347.85
2018-03-24T20:28:02.997Z,94351.41
2018-03-24T20:30:29.759Z,94344.62
2018-03-24T20:32:56.399Z,94343.45
2018-03-24T20:35:23.077Z,94349.16
2018-03-24T20:37:49.752Z,94342.80
2018-03-24T20:40:16.418Z,94349.00
2018-03-24T20:42:44.283Z,94356.97
2018-03-24T20:45:09.688Z,94358.50
2018-03-24T20:47:36.319Z,94360.28
2018-03-24T20:50:03.109Z,94372.16
2018-03-24T20:52:29.743Z,94364.94
2018-03-24T20:54:56.383Z,94369.48
2018-03-24T20:57:23.043Z,94364.38
2018-03-24T20:59:49.695Z,94362.53
2018-03-24T21:02:16.450Z,94361.28
2018-03-24T21:04:43.052Z,94364.06
2018-03-24T21:07:09.764Z,94361.03
2018-03-24T21:09:36.463Z,94366.44
2018-03-24T21:12:09.278Z,94365.83
2018-03-24T21:14:35.862Z,94364.19
2018-03-24T21:17:02.656Z,94367.45
2018-03-24T21:19:32.298Z,94364.94
2018-03-24T21:22:01.806Z,94359.48
2018-03-24T21:24:28.446Z,94363.88
2018-03-24T21:26:56.501Z,94364.44
2018-03-24T21:29:22.080Z,94363.28
2018-03-24T21:31:48.708Z,94363.05
2018-03-24T21:34:15.383Z,94364.89
2018-03-24T21:36:42.089Z,94364.14
2018-03-24T21:39:08.727Z,94365.91
2018-03-24T21:41:35.415Z,94363.05
2018-03-24T21:44:02.043Z,94363.88
2018-03-24T21:46:29.083Z,94363.55
2018-03-24T21:48:55.763Z,94363.92
2018-03-24T21:51:22.400Z,94368.36
2018-03-24T21:53:49.157Z,94366.84
2018-03-24T21:56:15.801Z,94364.44
2018-03-24T21:58:42.474Z,94368.09
2018-03-24T22:01:09.112Z,94370.45
2018-03-24T22:03:35.773Z,94372.48
2018-03-24T22:06:02.542Z,94371.25
2018-03-24T22:08:29.175Z,94364.44
2018-03-24T22:10:57.196Z,94373.15
2018-03-24T22:13:22.544Z,94370.23
2018-03-24T22:15:49.175Z,94373.15
2018-03-24T22:18:15.837Z,94374.25
2018-03-24T22:20:42.541Z,94373.23
2018-03-24T22:23:09.151Z,94360.83
2018-03-24T22:25:35.922Z,94371.31
2018-03-24T22:28:02.613Z,94371.01
2018-03-24T22:30:29.517Z,94371.09
2018-03-24T22:32:56.150Z,94374.89
2018-03-24T22:35:27.690Z,94378.41
2018-03-24T22:37:52.722Z,94381.79
2018-03-24T22:40:19.360Z,94381.30
2018-03-24T22:42:46.095Z,94382.59
2018-03-24T22:45:13.352Z,94387.23
2018-03-24T22:47:39.997Z,94388.79
2018-03-24T22:50:06.674Z,94383.71
2018-03-24T22:52:35.303Z,94387.88
2018-03-24T22:55:01.991Z,94388.52
2018-03-24T22:57:28.644Z,94386.38
2018-03-24T22:59:55.284Z,94387.23
2018-03-24T23:02:22.008Z,94394.38
2018-03-24T23:04:48.645Z,94391.14
2018-03-24T23:07:15.260Z,94392.80
2018-03-24T23:09:41.918Z,94390.77
2018-03-24T23:12:08.519Z,94394.11
2018-03-24T23:14:35.234Z,94393.66
2018-03-24T23:17:01.838Z,94399.03
2018-03-24T23:19:28.508Z,94394.48
2018-03-24T23:21:55.187Z,94398.39
2018-03-24T23:24:23.262Z,94397.53
2018-03-24T23:26:48.528Z,94408.47
2018-03-24T23:29:15.296Z,94402.45
2018-03-24T23:31:41.941Z,94404.41
2018-03-24T23:34:08.538Z,94405.23
2018-03-24T23:36:35.262Z,94407.45
2018-03-24T23:39:01.960Z,94400.95
2018-03-24T23:41:28.629Z,94403.09
2018-03-24T23:43:56.289Z,94405.98
2018-03-24T23:46:21.964Z,94407.86
2018-03-24T23:48:48.676Z,94414.86
2018-03-24T23:51:15.274Z,94414.06
2018-03-24T23:53:41.986Z,94413.95
2018-03-24T23:56:08.646Z,94409.59
2018-03-24T23:58:35.373Z,94414.86
